GEC8354 EDDF-LTFM
Flight info
| Callsign | GEC8354 |
|---|---|
| Flight time | 2h 19m |
| Altitude | 33000 |
| Route | CINDY7S CINDY Z74 HAREM DCT ASLEP DCT TAKUT DCT DINKU/N0489F310 L603 BESNI/N0481F330 L605 MIQ DCT ALUTU DCT BIBAG L605 ESEGA DCT VELOM DCT GOTAR DCT BABIT DCT ESIRI DCT ETIDA T390 RILEX |
| Aircraft | B77L/H-SDE1E2E3FGHIJ2J3J4J5M1RWXY/LB1D1 |
Departure
| Time | 2026-05-05 12:26 |
|---|---|
| Airport | Frankfurt Main Airport (EDDF) |
Arrival
| Time | 2026-05-05 14:46 |
|---|---|
| Airport | İstanbul Airport (LTFM) |
| Time | Latitude | Longitude | Altitude | Speed | Heading |
|---|---|---|---|---|---|
| 2026-05-05 11:47 | 50.04063 | 8.54497 | 362 ft | 0 kts | 249° |
| 2026-05-05 12:14 | 50.04068 | 8.54515 | 369 ft | 4 kts | 249° |
| 2026-05-05 12:14 | 50.04077 | 8.54554 | 366 ft | 4 kts | 249° |
| 2026-05-05 12:14 | 50.04085 | 8.54587 | 366 ft | 3 kts | 247° |
| 2026-05-05 12:15 | 50.04099 | 8.54603 | 364 ft | 4 kts | 179° |
| 2026-05-05 12:15 | 50.04112 | 8.54603 | 364 ft | 4 kts | 155° |
| 2026-05-05 12:15 | 50.04103 | 8.54620 | 364 ft | 4 kts | 151° |
| 2026-05-05 12:15 | 50.04093 | 8.54625 | 367 ft | 0 kts | 161° |
| 2026-05-05 12:19 | 50.04076 | 8.54634 | 369 ft | 4 kts | 160° |
| 2026-05-05 12:19 | 50.04049 | 8.54650 | 368 ft | 4 kts | 160° |
| 2026-05-05 12:19 | 50.04001 | 8.54677 | 368 ft | 9 kts | 160° |
| 2026-05-05 12:19 | 50.03946 | 8.54667 | 368 ft | 9 kts | 217° |
| 2026-05-05 12:20 | 50.03916 | 8.54587 | 368 ft | 9 kts | 248° |
| 2026-05-05 12:20 | 50.03894 | 8.54497 | 370 ft | 10 kts | 249° |
| 2026-05-05 12:20 | 50.03852 | 8.54352 | 371 ft | 16 kts | 237° |
| 2026-05-05 12:20 | 50.03795 | 8.54199 | 370 ft | 16 kts | 249° |
| 2026-05-05 12:21 | 50.03751 | 8.54019 | 370 ft | 20 kts | 250° |
| 2026-05-05 12:21 | 50.03703 | 8.53814 | 365 ft | 20 kts | 250° |
| 2026-05-05 12:21 | 50.03653 | 8.53610 | 368 ft | 20 kts | 248° |
| 2026-05-05 12:21 | 50.03602 | 8.53407 | 369 ft | 20 kts | 249° |
| 2026-05-05 12:22 | 50.03553 | 8.53202 | 365 ft | 20 kts | 250° |
| 2026-05-05 12:22 | 50.03505 | 8.53000 | 370 ft | 20 kts | 249° |
| 2026-05-05 12:22 | 50.03465 | 8.52844 | 371 ft | 10 kts | 246° |
| 2026-05-05 12:22 | 50.03443 | 8.52766 | 367 ft | 2 kts | 247° |
| 2026-05-05 12:23 | 50.03443 | 8.52764 | 367 ft | 0 kts | 247° |
| 2026-05-05 12:24 | 50.03438 | 8.52745 | 370 ft | 7 kts | 247° |
| 2026-05-05 12:24 | 50.03414 | 8.52644 | 369 ft | 9 kts | 254° |
| 2026-05-05 12:25 | 50.03399 | 8.52598 | 373 ft | 4 kts | 220° |
| 2026-05-05 12:25 | 50.03387 | 8.52595 | 372 ft | 0 kts | 182° |
| 2026-05-05 12:25 | 50.03300 | 8.52594 | 370 ft | 32 kts | 180° |
| 2026-05-05 12:26 | 50.02834 | 8.52599 | 365 ft | 100 kts | 179° |
| 2026-05-05 12:26 | 50.01938 | 8.52609 | 369 ft | 155 kts | 180° |
| 2026-05-05 12:26 | 50.00730 | 8.52619 | 517 ft | 179 kts | 180° |
| 2026-05-05 12:26 | 49.99488 | 8.52632 | 982 ft | 187 kts | 180° |
| 2026-05-05 12:27 | 49.98169 | 8.52640 | 1525 ft | 189 kts | 180° |
| 2026-05-05 12:27 | 49.96874 | 8.52668 | 2149 ft | 187 kts | 175° |
| 2026-05-05 12:27 | 49.95659 | 8.53472 | 2340 ft | 203 kts | 131° |
| 2026-05-05 12:27 | 49.95063 | 8.55533 | 2529 ft | 220 kts | 104° |
| 2026-05-05 12:28 | 49.94663 | 8.57963 | 2694 ft | 245 kts | 110° |
| 2026-05-05 12:28 | 49.93925 | 8.60433 | 3140 ft | 257 kts | 119° |
| 2026-05-05 12:28 | 49.93045 | 8.62889 | 3828 ft | 263 kts | 120° |
| 2026-05-05 12:28 | 49.92132 | 8.65378 | 4616 ft | 267 kts | 121° |
| 2026-05-05 12:29 | 49.91213 | 8.67889 | 5407 ft | 268 kts | 121° |
| 2026-05-05 12:29 | 49.90292 | 8.70408 | 6224 ft | 270 kts | 121° |
| 2026-05-05 12:29 | 49.89405 | 8.72992 | 6938 ft | 273 kts | 118° |
| 2026-05-05 12:29 | 49.88560 | 8.75653 | 7630 ft | 276 kts | 117° |
| 2026-05-05 12:30 | 49.87714 | 8.78340 | 8369 ft | 278 kts | 117° |
| 2026-05-05 12:30 | 49.86859 | 8.81047 | 9106 ft | 281 kts | 118° |
| 2026-05-05 12:30 | 49.85992 | 8.83782 | 9823 ft | 284 kts | 118° |
| 2026-05-05 12:30 | 49.85105 | 8.86563 | 10326 ft | 295 kts | 118° |
| 2026-05-05 12:31 | 49.84154 | 8.89528 | 10504 ft | 319 kts | 118° |
| 2026-05-05 12:31 | 49.83129 | 8.92718 | 10684 ft | 343 kts | 118° |
| 2026-05-05 12:31 | 49.82031 | 8.96127 | 10967 ft | 362 kts | 118° |
| 2026-05-05 12:31 | 49.80888 | 8.99674 | 11590 ft | 373 kts | 118° |
| 2026-05-05 12:32 | 49.79721 | 9.03297 | 12389 ft | 379 kts | 118° |
| 2026-05-05 12:32 | 49.78539 | 9.06962 | 13268 ft | 383 kts | 118° |
| 2026-05-05 12:32 | 49.77340 | 9.10668 | 14078 ft | 387 kts | 118° |
| 2026-05-05 12:32 | 49.76125 | 9.14411 | 14830 ft | 392 kts | 118° |
| 2026-05-05 12:33 | 49.74797 | 9.18105 | 15596 ft | 395 kts | 125° |
| 2026-05-05 12:33 | 49.73193 | 9.21565 | 16379 ft | 397 kts | 132° |
| 2026-05-05 12:33 | 49.71357 | 9.24775 | 17144 ft | 400 kts | 134° |
| 2026-05-05 12:33 | 49.69482 | 9.27991 | 17898 ft | 405 kts | 134° |
| 2026-05-05 12:34 | 49.67601 | 9.31253 | 18560 ft | 409 kts | 134° |
| 2026-05-05 12:34 | 49.65710 | 9.34558 | 19205 ft | 412 kts | 134° |
| 2026-05-05 12:34 | 49.63833 | 9.37931 | 19842 ft | 417 kts | 130° |
| 2026-05-05 12:34 | 49.62212 | 9.41673 | 20449 ft | 423 kts | 122° |
| 2026-05-05 12:35 | 49.60873 | 9.45747 | 21084 ft | 429 kts | 116° |
| 2026-05-05 12:35 | 49.59841 | 9.50099 | 21664 ft | 435 kts | 110° |
| 2026-05-05 12:35 | 49.58918 | 9.54558 | 22223 ft | 440 kts | 110° |
| 2026-05-05 12:35 | 49.57989 | 9.59069 | 22832 ft | 443 kts | 110° |
| 2026-05-05 12:36 | 49.57054 | 9.63541 | 23445 ft | 446 kts | 110° |
| 2026-05-05 12:36 | 49.56087 | 9.68093 | 23982 ft | 448 kts | 111° |
| 2026-05-05 12:36 | 49.55103 | 9.72662 | 24510 ft | 451 kts | 111° |
| 2026-05-05 12:36 | 49.54099 | 9.77244 | 25015 ft | 453 kts | 113° |
| 2026-05-05 12:37 | 49.52843 | 9.81694 | 25495 ft | 454 kts | 120° |
| 2026-05-05 12:37 | 49.51273 | 9.85905 | 25984 ft | 454 kts | 126° |
| 2026-05-05 12:37 | 49.49446 | 9.89866 | 26458 ft | 454 kts | 132° |
| 2026-05-05 12:37 | 49.47433 | 9.93622 | 26931 ft | 457 kts | 133° |
| 2026-05-05 12:38 | 49.45401 | 9.97394 | 27389 ft | 460 kts | 133° |
| 2026-05-05 12:38 | 49.43363 | 10.01205 | 27864 ft | 463 kts | 133° |
| 2026-05-05 12:38 | 49.41324 | 10.05050 | 28321 ft | 465 kts | 132° |
| 2026-05-05 12:38 | 49.39279 | 10.08918 | 28756 ft | 468 kts | 133° |
| 2026-05-05 12:39 | 49.37222 | 10.12806 | 29172 ft | 471 kts | 133° |
| 2026-05-05 12:39 | 49.35145 | 10.16713 | 29568 ft | 473 kts | 133° |
| 2026-05-05 12:39 | 49.33058 | 10.20623 | 29981 ft | 474 kts | 133° |
| 2026-05-05 12:39 | 49.30970 | 10.24532 | 30464 ft | 472 kts | 133° |
| 2026-05-05 12:40 | 49.28894 | 10.28418 | 30921 ft | 471 kts | 133° |
| 2026-05-05 12:40 | 49.26813 | 10.32307 | 31282 ft | 472 kts | 133° |
| 2026-05-05 12:40 | 49.24736 | 10.36180 | 31727 ft | 470 kts | 134° |
| 2026-05-05 12:40 | 49.22591 | 10.39931 | 32189 ft | 465 kts | 139° |
| 2026-05-05 12:41 | 49.20278 | 10.43362 | 32660 ft | 462 kts | 141° |
| 2026-05-05 12:41 | 49.17953 | 10.46747 | 33085 ft | 461 kts | 141° |
| 2026-05-05 12:41 | 49.15646 | 10.50148 | 33508 ft | 460 kts | 140° |
| 2026-05-05 12:41 | 49.13356 | 10.53552 | 33919 ft | 459 kts | 140° |
| 2026-05-05 12:42 | 49.11070 | 10.56953 | 34234 ft | 458 kts | 140° |
| 2026-05-05 12:42 | 49.08783 | 10.60347 | 34494 ft | 459 kts | 140° |
| 2026-05-05 12:42 | 49.06486 | 10.63749 | 34704 ft | 460 kts | 140° |
| 2026-05-05 12:42 | 49.04172 | 10.67164 | 34756 ft | 466 kts | 140° |
| 2026-05-05 12:43 | 48.99481 | 10.74045 | 34843 ft | 468 kts | 140° |
| 2026-05-05 12:43 | 48.94820 | 10.80871 | 34828 ft | 462 kts | 141° |
| 2026-05-05 12:44 | 48.90195 | 10.87631 | 34829 ft | 461 kts | 141° |
| 2026-05-05 12:44 | 48.85583 | 10.94389 | 34815 ft | 460 kts | 140° |
| 2026-05-05 12:45 | 48.80969 | 11.01139 | 34796 ft | 461 kts | 141° |
| 2026-05-05 12:45 | 48.76346 | 11.07877 | 34800 ft | 462 kts | 140° |
| 2026-05-05 12:46 | 48.71703 | 11.14623 | 34805 ft | 463 kts | 140° |
| 2026-05-05 12:46 | 48.67091 | 11.21450 | 34801 ft | 466 kts | 135° |
| 2026-05-05 12:47 | 48.63518 | 11.29739 | 34810 ft | 476 kts | 120° |
| 2026-05-05 12:47 | 48.61310 | 11.39191 | 34798 ft | 483 kts | 111° |
| 2026-05-05 12:48 | 48.59341 | 11.48898 | 34807 ft | 483 kts | 112° |
| 2026-05-05 12:48 | 48.57277 | 11.58557 | 34805 ft | 484 kts | 111° |
| 2026-05-05 12:49 | 48.55668 | 11.68466 | 34808 ft | 487 kts | 106° |
| 2026-05-05 12:49 | 48.54496 | 11.76857 | 34774 ft | 488 kts | 106° |
| 2026-05-05 12:50 | 48.53064 | 11.86867 | 34786 ft | 488 kts | 106° |
| 2026-05-05 12:50 | 48.51603 | 11.96793 | 34789 ft | 488 kts | 106° |
| 2026-05-05 12:51 | 48.50122 | 12.06787 | 34789 ft | 488 kts | 106° |
| 2026-05-05 12:51 | 48.48629 | 12.16777 | 34790 ft | 488 kts | 107° |
| 2026-05-05 12:52 | 48.47117 | 12.26767 | 34778 ft | 490 kts | 106° |
| 2026-05-05 12:52 | 48.45591 | 12.36792 | 34778 ft | 492 kts | 106° |
| 2026-05-05 12:53 | 48.44052 | 12.46858 | 34798 ft | 494 kts | 106° |
| 2026-05-05 12:53 | 48.42498 | 12.56958 | 34785 ft | 495 kts | 106° |
| 2026-05-05 12:54 | 48.40148 | 12.72130 | 34782 ft | 496 kts | 106° |
| 2026-05-05 12:55 | 48.38169 | 12.81946 | 34797 ft | 492 kts | 113° |
| 2026-05-05 12:55 | 48.35831 | 12.91695 | 34788 ft | 492 kts | 113° |
| 2026-05-05 12:56 | 48.33551 | 13.01310 | 34781 ft | 491 kts | 113° |
| 2026-05-05 12:56 | 48.31281 | 13.10978 | 34790 ft | 490 kts | 113° |
| 2026-05-05 12:57 | 48.29009 | 13.20605 | 34783 ft | 488 kts | 113° |
| 2026-05-05 12:57 | 48.26750 | 13.30216 | 34781 ft | 487 kts | 113° |
| 2026-05-05 12:58 | 48.24495 | 13.39796 | 34776 ft | 487 kts | 112° |
| 2026-05-05 12:58 | 48.22104 | 13.49267 | 34794 ft | 483 kts | 118° |
| 2026-05-05 12:59 | 48.18769 | 13.57932 | 34796 ft | 479 kts | 127° |
| 2026-05-05 12:59 | 48.15119 | 13.66282 | 34796 ft | 479 kts | 127° |
| 2026-05-05 13:00 | 48.09663 | 13.78860 | 34784 ft | 481 kts | 126° |
| 2026-05-05 13:01 | 48.02382 | 13.95696 | 34799 ft | 483 kts | 126° |
| 2026-05-05 13:01 | 47.98717 | 14.04135 | 34792 ft | 485 kts | 126° |
| 2026-05-05 13:02 | 47.95041 | 14.12571 | 34772 ft | 485 kts | 126° |
| 2026-05-05 13:02 | 47.91347 | 14.21017 | 34787 ft | 487 kts | 126° |
| 2026-05-05 13:03 | 47.87641 | 14.29469 | 34789 ft | 487 kts | 126° |
| 2026-05-05 13:03 | 47.83925 | 14.37917 | 34794 ft | 488 kts | 126° |
| 2026-05-05 13:04 | 47.80202 | 14.46352 | 34798 ft | 488 kts | 127° |
| 2026-05-05 13:04 | 47.76465 | 14.54793 | 34807 ft | 489 kts | 126° |
| 2026-05-05 13:05 | 47.72727 | 14.63214 | 34805 ft | 486 kts | 126° |
| 2026-05-05 13:05 | 47.69064 | 14.71445 | 34812 ft | 476 kts | 127° |
| 2026-05-05 13:06 | 47.65429 | 14.79584 | 34818 ft | 470 kts | 127° |
| 2026-05-05 13:06 | 47.61809 | 14.87661 | 34835 ft | 474 kts | 127° |
| 2026-05-05 13:07 | 47.58103 | 14.95891 | 34853 ft | 484 kts | 127° |
| 2026-05-05 13:07 | 47.54350 | 15.04218 | 34854 ft | 488 kts | 127° |
| 2026-05-05 13:08 | 47.50571 | 15.12580 | 34842 ft | 490 kts | 127° |
| 2026-05-05 13:08 | 47.46776 | 15.20953 | 34857 ft | 491 kts | 127° |
| 2026-05-05 13:09 | 47.42965 | 15.29322 | 34857 ft | 491 kts | 127° |
| 2026-05-05 13:09 | 47.39174 | 15.37643 | 34848 ft | 491 kts | 127° |
| 2026-05-05 13:10 | 47.35352 | 15.45996 | 34858 ft | 491 kts | 127° |
| 2026-05-05 13:10 | 47.31527 | 15.54328 | 34846 ft | 490 kts | 127° |
| 2026-05-05 13:11 | 47.27697 | 15.62642 | 34851 ft | 490 kts | 127° |
| 2026-05-05 13:11 | 47.23861 | 15.70948 | 34856 ft | 491 kts | 127° |
| 2026-05-05 13:12 | 47.20019 | 15.79242 | 34867 ft | 491 kts | 127° |
| 2026-05-05 13:12 | 47.16148 | 15.87560 | 34282 ft | 502 kts | 127° |
| 2026-05-05 13:13 | 47.14183 | 15.91772 | 34216 ft | 488 kts | 127° |
| 2026-05-05 13:13 | 47.12307 | 15.95831 | 34615 ft | 481 kts | 127° |
| 2026-05-05 13:13 | 47.08446 | 16.03853 | 35338 ft | 471 kts | 131° |
| 2026-05-05 13:14 | 47.04639 | 16.11828 | 35208 ft | 488 kts | 124° |
| 2026-05-05 13:14 | 47.02810 | 16.16066 | 35057 ft | 494 kts | 126° |
| 2026-05-05 13:14 | 47.00896 | 16.20254 | 34987 ft | 494 kts | 127° |
| 2026-05-05 13:15 | 46.97316 | 16.28821 | 34909 ft | 492 kts | 121° |
| 2026-05-05 13:15 | 46.94077 | 16.37537 | 34894 ft | 489 kts | 122° |
| 2026-05-05 13:16 | 46.90835 | 16.46253 | 34905 ft | 486 kts | 122° |
| 2026-05-05 13:16 | 46.87566 | 16.54922 | 34910 ft | 490 kts | 122° |
| 2026-05-05 13:17 | 46.84229 | 16.63694 | 34918 ft | 496 kts | 122° |
| 2026-05-05 13:17 | 46.80860 | 16.72523 | 34921 ft | 499 kts | 122° |
| 2026-05-05 13:18 | 46.77492 | 16.81329 | 34912 ft | 495 kts | 122° |
| 2026-05-05 13:18 | 46.74112 | 16.90133 | 34933 ft | 501 kts | 122° |
| 2026-05-05 13:19 | 46.70675 | 16.99054 | 34945 ft | 507 kts | 122° |
| 2026-05-05 13:19 | 46.67214 | 17.08016 | 34942 ft | 508 kts | 121° |
| 2026-05-05 13:20 | 46.63742 | 17.16975 | 34940 ft | 508 kts | 122° |
| 2026-05-05 13:20 | 46.60265 | 17.25914 | 34934 ft | 507 kts | 121° |
| 2026-05-05 13:21 | 46.56790 | 17.34824 | 34937 ft | 506 kts | 121° |
| 2026-05-05 13:21 | 46.53315 | 17.43699 | 34936 ft | 505 kts | 121° |
| 2026-05-05 13:22 | 46.49846 | 17.52534 | 34938 ft | 503 kts | 122° |
| 2026-05-05 13:22 | 46.46395 | 17.61291 | 34937 ft | 503 kts | 121° |
| 2026-05-05 13:23 | 46.42921 | 17.70080 | 34939 ft | 502 kts | 121° |
| 2026-05-05 13:23 | 46.39440 | 17.78857 | 34938 ft | 502 kts | 122° |
| 2026-05-05 13:24 | 46.35951 | 17.87629 | 34941 ft | 503 kts | 122° |
| 2026-05-05 13:24 | 46.32452 | 17.96394 | 34943 ft | 504 kts | 122° |
| 2026-05-05 13:25 | 46.28937 | 18.05175 | 34949 ft | 505 kts | 122° |
| 2026-05-05 13:25 | 46.25409 | 18.13959 | 34954 ft | 506 kts | 122° |
| 2026-05-05 13:26 | 46.21865 | 18.22756 | 34956 ft | 507 kts | 122° |
| 2026-05-05 13:26 | 46.18311 | 18.31547 | 34953 ft | 507 kts | 121° |
| 2026-05-05 13:27 | 46.14754 | 18.40321 | 34956 ft | 506 kts | 121° |
| 2026-05-05 13:27 | 46.11197 | 18.49066 | 34956 ft | 505 kts | 122° |
| 2026-05-05 13:28 | 46.07641 | 18.57781 | 34949 ft | 504 kts | 121° |
| 2026-05-05 13:28 | 46.04078 | 18.66484 | 34944 ft | 503 kts | 122° |
| 2026-05-05 13:29 | 46.00542 | 18.75097 | 34957 ft | 503 kts | 122° |
| 2026-05-05 13:29 | 45.96980 | 18.83749 | 34941 ft | 503 kts | 122° |
| 2026-05-05 13:30 | 45.93350 | 18.92335 | 34936 ft | 502 kts | 125° |
| 2026-05-05 13:30 | 45.88957 | 19.00098 | 34961 ft | 501 kts | 133° |
| 2026-05-05 13:31 | 45.84323 | 19.07570 | 34957 ft | 501 kts | 133° |
| 2026-05-05 13:31 | 45.79706 | 19.15060 | 34953 ft | 502 kts | 133° |
| 2026-05-05 13:32 | 45.75100 | 19.22573 | 34959 ft | 502 kts | 132° |
| 2026-05-05 13:32 | 45.70488 | 19.30099 | 34955 ft | 502 kts | 132° |
| 2026-05-05 13:33 | 45.65867 | 19.37617 | 34955 ft | 503 kts | 132° |
| 2026-05-05 13:33 | 45.61237 | 19.45126 | 34940 ft | 504 kts | 132° |
| 2026-05-05 13:34 | 45.56597 | 19.52630 | 34957 ft | 504 kts | 133° |
| 2026-05-05 13:34 | 45.51953 | 19.60120 | 34956 ft | 504 kts | 133° |
| 2026-05-05 13:35 | 45.47299 | 19.67606 | 34951 ft | 504 kts | 133° |
| 2026-05-05 13:35 | 45.42645 | 19.75070 | 34947 ft | 504 kts | 133° |
| 2026-05-05 13:36 | 45.37980 | 19.82533 | 34959 ft | 504 kts | 133° |
| 2026-05-05 13:36 | 45.34101 | 19.88723 | 34954 ft | 505 kts | 133° |
| 2026-05-05 13:37 | 45.29426 | 19.96166 | 34961 ft | 505 kts | 133° |
| 2026-05-05 13:37 | 45.23982 | 20.04807 | 34959 ft | 505 kts | 133° |
| 2026-05-05 13:38 | 45.20054 | 20.11025 | 34965 ft | 505 kts | 133° |
| 2026-05-05 13:38 | 45.15361 | 20.18436 | 34962 ft | 505 kts | 133° |
| 2026-05-05 13:39 | 45.10658 | 20.25842 | 34958 ft | 506 kts | 133° |
| 2026-05-05 13:39 | 45.05947 | 20.33243 | 34967 ft | 506 kts | 133° |
| 2026-05-05 13:40 | 45.01260 | 20.40586 | 34967 ft | 507 kts | 133° |
| 2026-05-05 13:40 | 44.96529 | 20.47978 | 34966 ft | 507 kts | 133° |
| 2026-05-05 13:41 | 44.91789 | 20.55364 | 34978 ft | 508 kts | 133° |
| 2026-05-05 13:41 | 44.87043 | 20.62739 | 34966 ft | 507 kts | 133° |
| 2026-05-05 13:42 | 44.82296 | 20.70099 | 34967 ft | 507 kts | 133° |
| 2026-05-05 13:42 | 44.77547 | 20.77441 | 34968 ft | 507 kts | 133° |
| 2026-05-05 13:43 | 44.72796 | 20.84766 | 34968 ft | 506 kts | 133° |
| 2026-05-05 13:43 | 44.68043 | 20.92076 | 34970 ft | 506 kts | 132° |
| 2026-05-05 13:44 | 44.63292 | 20.99364 | 34974 ft | 506 kts | 133° |
| 2026-05-05 13:44 | 44.58529 | 21.06650 | 34969 ft | 506 kts | 133° |
| 2026-05-05 13:45 | 44.53758 | 21.13931 | 34969 ft | 507 kts | 133° |
| 2026-05-05 13:45 | 44.48976 | 21.21209 | 34982 ft | 508 kts | 133° |
| 2026-05-05 13:46 | 44.44181 | 21.28489 | 34973 ft | 509 kts | 133° |
| 2026-05-05 13:46 | 44.39410 | 21.35714 | 34980 ft | 509 kts | 133° |
| 2026-05-05 13:47 | 44.34597 | 21.42986 | 34984 ft | 510 kts | 132° |
| 2026-05-05 13:47 | 44.29779 | 21.50259 | 34981 ft | 510 kts | 132° |
| 2026-05-05 13:48 | 44.24976 | 21.57544 | 34987 ft | 510 kts | 132° |
| 2026-05-05 13:48 | 44.20179 | 21.64829 | 34998 ft | 510 kts | 132° |
| 2026-05-05 13:49 | 44.15358 | 21.72120 | 35003 ft | 511 kts | 132° |
| 2026-05-05 13:49 | 44.10531 | 21.79392 | 34996 ft | 512 kts | 132° |
| 2026-05-05 13:50 | 44.05693 | 21.86660 | 35000 ft | 512 kts | 132° |
| 2026-05-05 13:50 | 44.00854 | 21.93914 | 35001 ft | 512 kts | 132° |
| 2026-05-05 13:51 | 43.96008 | 22.01159 | 35002 ft | 512 kts | 132° |
| 2026-05-05 13:51 | 43.91151 | 22.08403 | 34997 ft | 513 kts | 132° |
| 2026-05-05 13:52 | 43.86286 | 22.15641 | 34982 ft | 513 kts | 132° |
| 2026-05-05 13:52 | 43.81412 | 22.22873 | 35006 ft | 514 kts | 132° |
| 2026-05-05 13:53 | 43.76531 | 22.30099 | 34990 ft | 514 kts | 132° |
| 2026-05-05 13:53 | 43.71648 | 22.37322 | 34990 ft | 514 kts | 131° |
| 2026-05-05 13:54 | 43.67371 | 22.45208 | 35017 ft | 513 kts | 120° |
| 2026-05-05 13:54 | 43.64060 | 22.53911 | 34992 ft | 512 kts | 115° |
| 2026-05-05 13:55 | 43.60893 | 22.62709 | 34996 ft | 512 kts | 115° |
| 2026-05-05 13:55 | 43.57688 | 22.71489 | 35011 ft | 512 kts | 115° |
| 2026-05-05 13:56 | 43.54454 | 22.80246 | 35003 ft | 513 kts | 115° |
| 2026-05-05 13:56 | 43.51202 | 22.89007 | 35009 ft | 514 kts | 115° |
| 2026-05-05 13:57 | 43.47959 | 22.97717 | 35007 ft | 515 kts | 115° |
| 2026-05-05 13:57 | 43.44688 | 23.06478 | 35024 ft | 514 kts | 115° |
| 2026-05-05 13:58 | 43.41411 | 23.15232 | 35007 ft | 514 kts | 115° |
| 2026-05-05 13:58 | 43.38133 | 23.23964 | 35020 ft | 514 kts | 115° |
| 2026-05-05 13:59 | 43.33200 | 23.37053 | 35028 ft | 514 kts | 115° |
| 2026-05-05 14:00 | 43.28811 | 23.48643 | 35010 ft | 514 kts | 115° |
| 2026-05-05 14:00 | 43.24950 | 23.58803 | 35022 ft | 514 kts | 115° |
| 2026-05-05 14:01 | 43.21636 | 23.67492 | 35035 ft | 514 kts | 115° |
| 2026-05-05 14:01 | 43.18312 | 23.76181 | 35023 ft | 514 kts | 115° |
| 2026-05-05 14:02 | 43.14983 | 23.84858 | 35019 ft | 514 kts | 115° |
| 2026-05-05 14:02 | 43.11672 | 23.93462 | 35021 ft | 514 kts | 115° |
| 2026-05-05 14:03 | 43.08335 | 24.02107 | 35028 ft | 514 kts | 115° |
| 2026-05-05 14:03 | 43.04995 | 24.10732 | 35024 ft | 513 kts | 115° |
| 2026-05-05 14:04 | 43.01649 | 24.19346 | 35020 ft | 512 kts | 115° |
| 2026-05-05 14:04 | 42.98302 | 24.27938 | 35031 ft | 512 kts | 115° |
| 2026-05-05 14:05 | 42.94952 | 24.36515 | 35040 ft | 512 kts | 115° |
| 2026-05-05 14:05 | 42.91598 | 24.45077 | 35034 ft | 512 kts | 115° |
| 2026-05-05 14:06 | 42.88234 | 24.53637 | 35050 ft | 512 kts | 115° |
| 2026-05-05 14:06 | 42.84867 | 24.62181 | 35013 ft | 512 kts | 115° |
| 2026-05-05 14:07 | 42.81492 | 24.70720 | 35021 ft | 512 kts | 115° |
| 2026-05-05 14:07 | 42.78110 | 24.79249 | 35034 ft | 512 kts | 115° |
| 2026-05-05 14:08 | 42.74720 | 24.87779 | 35028 ft | 513 kts | 115° |
| 2026-05-05 14:08 | 42.71346 | 24.96249 | 35022 ft | 513 kts | 115° |
| 2026-05-05 14:09 | 42.67946 | 25.04756 | 35030 ft | 511 kts | 115° |
| 2026-05-05 14:09 | 42.64549 | 25.13232 | 35034 ft | 511 kts | 116° |
| 2026-05-05 14:10 | 42.61146 | 25.21698 | 35021 ft | 511 kts | 116° |
| 2026-05-05 14:10 | 42.57733 | 25.30164 | 35025 ft | 512 kts | 116° |
| 2026-05-05 14:11 | 42.54310 | 25.38631 | 35032 ft | 512 kts | 116° |
| 2026-05-05 14:11 | 42.50876 | 25.47098 | 35022 ft | 513 kts | 116° |
| 2026-05-05 14:12 | 42.47432 | 25.55564 | 35018 ft | 513 kts | 116° |
| 2026-05-05 14:12 | 42.43983 | 25.64024 | 35022 ft | 512 kts | 116° |
| 2026-05-05 14:13 | 42.40527 | 25.72471 | 35016 ft | 513 kts | 116° |
| 2026-05-05 14:13 | 42.37066 | 25.80905 | 35003 ft | 513 kts | 116° |
| 2026-05-05 14:14 | 42.33597 | 25.89339 | 35015 ft | 513 kts | 116° |
| 2026-05-05 14:14 | 42.30122 | 25.97765 | 35024 ft | 514 kts | 116° |
| 2026-05-05 14:15 | 42.26660 | 26.06135 | 35004 ft | 514 kts | 116° |
| 2026-05-05 14:15 | 42.23166 | 26.14552 | 35025 ft | 514 kts | 116° |
| 2026-05-05 14:16 | 42.19663 | 26.22957 | 35021 ft | 514 kts | 116° |
| 2026-05-05 14:16 | 42.16159 | 26.31347 | 35017 ft | 513 kts | 116° |
| 2026-05-05 14:17 | 42.14405 | 26.35540 | 34843 ft | 514 kts | 116° |
| 2026-05-05 14:17 | 42.12651 | 26.39727 | 34597 ft | 512 kts | 116° |
| 2026-05-05 14:17 | 42.10904 | 26.43889 | 34357 ft | 508 kts | 116° |
| 2026-05-05 14:17 | 42.09174 | 26.48006 | 34139 ft | 503 kts | 116° |
| 2026-05-05 14:18 | 42.07454 | 26.52091 | 33762 ft | 500 kts | 116° |
| 2026-05-05 14:18 | 42.05746 | 26.56148 | 33358 ft | 497 kts | 116° |
| 2026-05-05 14:18 | 42.04046 | 26.60180 | 32907 ft | 495 kts | 116° |
| 2026-05-05 14:18 | 42.02351 | 26.64195 | 32442 ft | 493 kts | 116° |
| 2026-05-05 14:19 | 42.00660 | 26.68195 | 31978 ft | 491 kts | 116° |
| 2026-05-05 14:19 | 41.98978 | 26.72168 | 31532 ft | 488 kts | 116° |
| 2026-05-05 14:19 | 41.97308 | 26.76105 | 31106 ft | 482 kts | 116° |
| 2026-05-05 14:19 | 41.95617 | 26.79986 | 30657 ft | 478 kts | 117° |
| 2026-05-05 14:20 | 41.93895 | 26.83782 | 30224 ft | 473 kts | 118° |
| 2026-05-05 14:20 | 41.92174 | 26.87545 | 29634 ft | 474 kts | 118° |
| 2026-05-05 14:20 | 41.90437 | 26.91377 | 29085 ft | 486 kts | 118° |
| 2026-05-05 14:20 | 41.88674 | 26.95274 | 28586 ft | 489 kts | 118° |
| 2026-05-05 14:21 | 41.86907 | 26.99160 | 28090 ft | 487 kts | 118° |
| 2026-05-05 14:21 | 41.85148 | 27.03020 | 27627 ft | 483 kts | 118° |
| 2026-05-05 14:21 | 41.83408 | 27.06836 | 27125 ft | 477 kts | 118° |
| 2026-05-05 14:21 | 41.81686 | 27.10609 | 26720 ft | 470 kts | 118° |
| 2026-05-05 14:22 | 41.79980 | 27.14273 | 26546 ft | 458 kts | 120° |
| 2026-05-05 14:22 | 41.78208 | 27.17750 | 26395 ft | 446 kts | 122° |
| 2026-05-05 14:22 | 41.76437 | 27.21101 | 26228 ft | 434 kts | 122° |
| 2026-05-05 14:22 | 41.74711 | 27.24387 | 25867 ft | 430 kts | 122° |
| 2026-05-05 14:23 | 41.73035 | 27.27632 | 25402 ft | 430 kts | 121° |
| 2026-05-05 14:23 | 41.71346 | 27.30921 | 24928 ft | 427 kts | 122° |
| 2026-05-05 14:23 | 41.69412 | 27.33891 | 24412 ft | 426 kts | 139° |
| 2026-05-05 14:23 | 41.66865 | 27.35907 | 23950 ft | 427 kts | 159° |
| 2026-05-05 14:24 | 41.64012 | 27.36949 | 23527 ft | 422 kts | 167° |
| 2026-05-05 14:24 | 41.61170 | 27.37836 | 23157 ft | 416 kts | 166° |
| 2026-05-05 14:24 | 41.58385 | 27.38769 | 22882 ft | 409 kts | 165° |
| 2026-05-05 14:24 | 41.55645 | 27.39719 | 22594 ft | 403 kts | 165° |
| 2026-05-05 14:25 | 41.53823 | 27.40357 | 22398 ft | 398 kts | 165° |
| 2026-05-05 14:25 | 41.51162 | 27.41285 | 22121 ft | 392 kts | 165° |
| 2026-05-05 14:25 | 41.48550 | 27.42212 | 21841 ft | 383 kts | 161° |
| 2026-05-05 14:25 | 41.46258 | 27.43769 | 21531 ft | 371 kts | 137° |
| 2026-05-05 14:26 | 41.44576 | 27.46271 | 21229 ft | 358 kts | 117° |
| 2026-05-05 14:26 | 41.43608 | 27.49260 | 20876 ft | 347 kts | 99° |
| 2026-05-05 14:26 | 41.43214 | 27.52398 | 20447 ft | 341 kts | 88° |
| 2026-05-05 14:26 | 41.43435 | 27.55473 | 19999 ft | 330 kts | 70° |
| 2026-05-05 14:27 | 41.44058 | 27.58399 | 19610 ft | 327 kts | 69° |
| 2026-05-05 14:27 | 41.44662 | 27.61314 | 19253 ft | 325 kts | 70° |
| 2026-05-05 14:27 | 41.45243 | 27.64222 | 18907 ft | 323 kts | 70° |
| 2026-05-05 14:27 | 41.45809 | 27.67106 | 18566 ft | 321 kts | 70° |
| 2026-05-05 14:28 | 41.46338 | 27.69977 | 18186 ft | 318 kts | 76° |
| 2026-05-05 14:28 | 41.46203 | 27.72931 | 17441 ft | 328 kts | 104° |
| 2026-05-05 14:28 | 41.45154 | 27.75670 | 16691 ft | 336 kts | 121° |
| 2026-05-05 14:28 | 41.43630 | 27.78042 | 16020 ft | 337 kts | 129° |
| 2026-05-05 14:29 | 41.41984 | 27.80258 | 15385 ft | 335 kts | 131° |
| 2026-05-05 14:29 | 41.40320 | 27.82423 | 14821 ft | 336 kts | 131° |
| 2026-05-05 14:29 | 41.38649 | 27.84590 | 14481 ft | 333 kts | 131° |
| 2026-05-05 14:29 | 41.37003 | 27.86733 | 14182 ft | 329 kts | 131° |
| 2026-05-05 14:30 | 41.35381 | 27.88856 | 13842 ft | 326 kts | 131° |
| 2026-05-05 14:30 | 41.33774 | 27.90971 | 13441 ft | 324 kts | 130° |
| 2026-05-05 14:30 | 41.32176 | 27.93081 | 13054 ft | 322 kts | 130° |
| 2026-05-05 14:30 | 41.30593 | 27.95175 | 12666 ft | 320 kts | 130° |
| 2026-05-05 14:31 | 41.29017 | 27.97262 | 12256 ft | 320 kts | 130° |
| 2026-05-05 14:31 | 41.27431 | 27.99365 | 11697 ft | 324 kts | 131° |
| 2026-05-05 14:31 | 41.25838 | 28.01474 | 11313 ft | 322 kts | 131° |
| 2026-05-05 14:31 | 41.24255 | 28.03567 | 10962 ft | 319 kts | 131° |
| 2026-05-05 14:32 | 41.22687 | 28.05638 | 10623 ft | 316 kts | 131° |
| 2026-05-05 14:32 | 41.21135 | 28.07687 | 10304 ft | 313 kts | 131° |
| 2026-05-05 14:32 | 41.19599 | 28.09716 | 9995 ft | 310 kts | 131° |
| 2026-05-05 14:32 | 41.18077 | 28.11725 | 9624 ft | 307 kts | 131° |
| 2026-05-05 14:33 | 41.16566 | 28.13718 | 9210 ft | 305 kts | 131° |
| 2026-05-05 14:33 | 41.15081 | 28.15675 | 8809 ft | 304 kts | 131° |
| 2026-05-05 14:33 | 41.13586 | 28.17645 | 8414 ft | 302 kts | 132° |
| 2026-05-05 14:33 | 41.12077 | 28.19632 | 8040 ft | 301 kts | 132° |
| 2026-05-05 14:34 | 41.10616 | 28.21553 | 7660 ft | 299 kts | 132° |
| 2026-05-05 14:34 | 41.09146 | 28.23485 | 7287 ft | 297 kts | 132° |
| 2026-05-05 14:34 | 41.07684 | 28.25407 | 6922 ft | 295 kts | 133° |
| 2026-05-05 14:34 | 41.06225 | 28.27322 | 6565 ft | 294 kts | 133° |
| 2026-05-05 14:35 | 41.04773 | 28.29228 | 6174 ft | 293 kts | 133° |
| 2026-05-05 14:35 | 41.03329 | 28.31122 | 5777 ft | 291 kts | 133° |
| 2026-05-05 14:35 | 41.01893 | 28.33003 | 5403 ft | 289 kts | 133° |
| 2026-05-05 14:35 | 41.00470 | 28.34864 | 5055 ft | 286 kts | 133° |
| 2026-05-05 14:36 | 40.99074 | 28.36690 | 4795 ft | 279 kts | 133° |
| 2026-05-05 14:36 | 40.97909 | 28.38638 | 4544 ft | 264 kts | 110° |
| 2026-05-05 14:36 | 40.97540 | 28.40982 | 4441 ft | 263 kts | 88° |
| 2026-05-05 14:36 | 40.97550 | 28.43435 | 4364 ft | 270 kts | 86° |
| 2026-05-05 14:37 | 40.97552 | 28.45931 | 4238 ft | 271 kts | 87° |
| 2026-05-05 14:37 | 40.97549 | 28.48408 | 4117 ft | 267 kts | 87° |
| 2026-05-05 14:37 | 40.97547 | 28.50851 | 4024 ft | 264 kts | 88° |
| 2026-05-05 14:37 | 40.97544 | 28.53280 | 3879 ft | 264 kts | 88° |
| 2026-05-05 14:38 | 40.97539 | 28.55695 | 3614 ft | 260 kts | 88° |
| 2026-05-05 14:38 | 40.97533 | 28.58058 | 3347 ft | 254 kts | 88° |
| 2026-05-05 14:38 | 40.97496 | 28.60334 | 3084 ft | 239 kts | 95° |
| 2026-05-05 14:38 | 40.97183 | 28.62403 | 2986 ft | 222 kts | 102° |
| 2026-05-05 14:39 | 40.96811 | 28.64354 | 3006 ft | 218 kts | 102° |
| 2026-05-05 14:39 | 40.96474 | 28.66291 | 2994 ft | 213 kts | 89° |
| 2026-05-05 14:39 | 40.96880 | 28.68075 | 3000 ft | 207 kts | 46° |
| 2026-05-05 14:39 | 40.98065 | 28.69080 | 3039 ft | 205 kts | 19° |
| 2026-05-05 14:40 | 40.99434 | 28.69692 | 3006 ft | 211 kts | 18° |
| 2026-05-05 14:40 | 41.00833 | 28.70323 | 3013 ft | 212 kts | 18° |
| 2026-05-05 14:40 | 41.02215 | 28.70927 | 2994 ft | 205 kts | 14° |
| 2026-05-05 14:40 | 41.03623 | 28.71172 | 2993 ft | 205 kts | 2° |
| 2026-05-05 14:41 | 41.05053 | 28.71191 | 2995 ft | 206 kts | 359° |
| 2026-05-05 14:41 | 41.06479 | 28.71166 | 2996 ft | 200 kts | 359° |
| 2026-05-05 14:41 | 41.07820 | 28.71137 | 2990 ft | 185 kts | 359° |
| 2026-05-05 14:41 | 41.09088 | 28.71108 | 2999 ft | 181 kts | 359° |
| 2026-05-05 14:42 | 41.10345 | 28.71082 | 2997 ft | 180 kts | 359° |
| 2026-05-05 14:42 | 41.11601 | 28.71057 | 2998 ft | 181 kts | 359° |
| 2026-05-05 14:42 | 41.12856 | 28.71030 | 2995 ft | 180 kts | 358° |
| 2026-05-05 14:42 | 41.14134 | 28.71003 | 2796 ft | 187 kts | 359° |
| 2026-05-05 14:43 | 41.15412 | 28.70976 | 2537 ft | 180 kts | 359° |
| 2026-05-05 14:43 | 41.16654 | 28.70949 | 2350 ft | 176 kts | 359° |
| 2026-05-05 14:43 | 41.17848 | 28.70925 | 2057 ft | 166 kts | 359° |
| 2026-05-05 14:43 | 41.18940 | 28.70904 | 1859 ft | 149 kts | 359° |
| 2026-05-05 14:44 | 41.19959 | 28.70883 | 1712 ft | 147 kts | 359° |
| 2026-05-05 14:44 | 41.21016 | 28.70860 | 1483 ft | 154 kts | 359° |
| 2026-05-05 14:44 | 41.22085 | 28.70841 | 1249 ft | 152 kts | 359° |
| 2026-05-05 14:44 | 41.23130 | 28.70817 | 1039 ft | 149 kts | 359° |
| 2026-05-05 14:45 | 41.24152 | 28.70791 | 807 ft | 145 kts | 359° |
| 2026-05-05 14:45 | 41.25156 | 28.70772 | 633 ft | 144 kts | 359° |
| 2026-05-05 14:45 | 41.26132 | 28.70751 | 355 ft | 141 kts | 359° |
| 2026-05-05 14:45 | 41.27108 | 28.70732 | 193 ft | 134 kts | 359° |
| 2026-05-05 14:46 | 41.27903 | 28.70714 | 199 ft | 91 kts | 359° |
| 2026-05-05 14:46 | 41.28352 | 28.70711 | 182 ft | 38 kts | 360° |
| 2026-05-05 14:46 | 41.28485 | 28.70724 | 181 ft | 20 kts | 14° |
| 2026-05-05 14:46 | 41.28617 | 28.70793 | 180 ft | 18 kts | 26° |
| 2026-05-05 14:47 | 41.28652 | 28.70818 | 180 ft | 0 kts | 27° |
| 2026-05-05 14:47 | 41.28711 | 28.70865 | 180 ft | 19 kts | 31° |
| 2026-05-05 14:47 | 41.28828 | 28.70955 | 181 ft | 19 kts | 30° |
| 2026-05-05 14:47 | 41.28946 | 28.71041 | 182 ft | 19 kts | 28° |
| 2026-05-05 14:48 | 41.28995 | 28.71150 | 182 ft | 16 kts | 133° |
| 2026-05-05 14:48 | 41.28887 | 28.71172 | 182 ft | 16 kts | 178° |
| 2026-05-05 14:48 | 41.28778 | 28.71175 | 182 ft | 16 kts | 179° |
| 2026-05-05 14:48 | 41.28669 | 28.71177 | 182 ft | 16 kts | 179° |
| 2026-05-05 14:49 | 41.28560 | 28.71179 | 182 ft | 16 kts | 179° |
| 2026-05-05 14:49 | 41.28451 | 28.71181 | 182 ft | 16 kts | 179° |
| 2026-05-05 14:49 | 41.28342 | 28.71182 | 182 ft | 16 kts | 180° |
| 2026-05-05 14:49 | 41.28233 | 28.71183 | 182 ft | 16 kts | 179° |
| 2026-05-05 14:50 | 41.28124 | 28.71185 | 182 ft | 16 kts | 179° |
| 2026-05-05 14:50 | 41.28015 | 28.71188 | 182 ft | 16 kts | 179° |
| 2026-05-05 14:50 | 41.27906 | 28.71190 | 182 ft | 16 kts | 179° |
| 2026-05-05 14:50 | 41.27802 | 28.71192 | 182 ft | 14 kts | 179° |
| 2026-05-05 14:51 | 41.27729 | 28.71194 | 182 ft | 9 kts | 178° |
| 2026-05-05 14:51 | 41.27692 | 28.71246 | 182 ft | 9 kts | 94° |
| 2026-05-05 14:51 | 41.27691 | 28.71321 | 182 ft | 8 kts | 89° |
| 2026-05-05 14:51 | 41.27692 | 28.71349 | 182 ft | 3 kts | 89° |
| 2026-05-05 14:52 | 41.27692 | 28.71368 | 182 ft | 1 kts | 89° |
| 2026-05-05 14:52 | 41.27692 | 28.71376 | 182 ft | 0 kts | 89° |
| 2026-05-05 14:52 | 41.27692 | 28.71377 | 182 ft | 0 kts | 89° |